HBZKZ LOWZ-LOWZ
Flight info
| Callsign | HBZKZ |
|---|---|
| Flight time | 0h 6m |
| Altitude | 5000 |
| Route | VFR |
| Aircraft | H145/L-SDFGRY/C |
Departure
| Time | 2026-04-18 15:28 |
|---|---|
| Airport | Zell am See Airfield (LOWZ) |
Arrival
| Time | 2026-04-18 15:34 |
|---|---|
| Airport | Zell am See Airfield (LOWZ) |
| Time | Latitude | Longitude | Altitude | Speed | Heading |
|---|---|---|---|---|---|
| 2026-04-18 15:23 | 47.29260 | 12.79090 | 2486 ft | 0 kts | 345° |
| 2026-04-18 15:27 | 47.29259 | 12.79090 | 2498 ft | 1 kts | 352° |
| 2026-04-18 15:28 | 47.29273 | 12.79113 | 2577 ft | 13 kts | 1° |
| 2026-04-18 15:28 | 47.29612 | 12.79189 | 2819 ft | 76 kts | 6° |
| 2026-04-18 15:28 | 47.30207 | 12.79380 | 3032 ft | 97 kts | 8° |
| 2026-04-18 15:28 | 47.30930 | 12.79685 | 3095 ft | 118 kts | 12° |
| 2026-04-18 15:29 | 47.31750 | 12.80099 | 3133 ft | 130 kts | 17° |
| 2026-04-18 15:29 | 47.32630 | 12.80383 | 3112 ft | 123 kts | 10° |
| 2026-04-18 15:29 | 47.33455 | 12.80565 | 3163 ft | 117 kts | 4° |
| 2026-04-18 15:29 | 47.34252 | 12.80625 | 3239 ft | 111 kts | 0° |
| 2026-04-18 15:30 | 47.35061 | 12.80659 | 3016 ft | 124 kts | 359° |
| 2026-04-18 15:30 | 47.35938 | 12.80700 | 2974 ft | 127 kts | 358° |
| 2026-04-18 15:30 | 47.36809 | 12.80700 | 3064 ft | 121 kts | 356° |
| 2026-04-18 15:30 | 47.37623 | 12.80851 | 3139 ft | 120 kts | 5° |
| 2026-04-18 15:31 | 47.38360 | 12.81122 | 3443 ft | 98 kts | 8° |
| 2026-04-18 15:31 | 47.39021 | 12.81387 | 3524 ft | 108 kts | 11° |
| 2026-04-18 15:31 | 47.39784 | 12.81602 | 3522 ft | 113 kts | 7° |
| 2026-04-18 15:31 | 47.40567 | 12.81807 | 3539 ft | 111 kts | 17° |
| 2026-04-18 15:32 | 47.41009 | 12.82646 | 3659 ft | 105 kts | 62° |
| 2026-04-18 15:32 | 47.40912 | 12.83710 | 3741 ft | 108 kts | 104° |
| 2026-04-18 15:32 | 47.40300 | 12.84197 | 3703 ft | 107 kts | 158° |
| 2026-04-18 15:32 | 47.39501 | 12.84103 | 3584 ft | 124 kts | 182° |
| 2026-04-18 15:33 | 47.38672 | 12.83734 | 3644 ft | 125 kts | 207° |
| 2026-04-18 15:33 | 47.37874 | 12.83045 | 3500 ft | 141 kts | 213° |
| 2026-04-18 15:33 | 47.37060 | 12.82223 | 3373 ft | 145 kts | 213° |
| 2026-04-18 15:33 | 47.36155 | 12.81648 | 3341 ft | 136 kts | 202° |
| 2026-04-18 15:34 | 47.35339 | 12.81342 | 3384 ft | 110 kts | 194° |
| 2026-04-18 15:34 | 47.34701 | 12.81140 | 3312 ft | 79 kts | 191° |
| 2026-04-18 15:34 | 47.34238 | 12.81023 | 3158 ft | 58 kts | 189° |
| 2026-04-18 15:34 | 47.33891 | 12.80936 | 2973 ft | 45 kts | 188° |
| 2026-04-18 15:35 | 47.33449 | 12.80864 | 2872 ft | 84 kts | 190° |
| 2026-04-18 15:35 | 47.32811 | 12.80745 | 2795 ft | 92 kts | 187° |
| 2026-04-18 15:35 | 47.32174 | 12.80794 | 2740 ft | 87 kts | 181° |
| 2026-04-18 15:35 | 47.31715 | 12.80931 | 2743 ft | 53 kts | 179° |
| 2026-04-18 15:36 | 47.31509 | 12.80936 | 2781 ft | 20 kts | 183° |
| 2026-04-18 15:36 | 47.31429 | 12.80986 | 2774 ft | 9 kts | 189° |
| 2026-04-18 15:36 | 47.31380 | 12.81062 | 2790 ft | 14 kts | 195° |
| 2026-04-18 15:36 | 47.31317 | 12.81086 | 2826 ft | 9 kts | 200° |
| 2026-04-18 15:37 | 47.31253 | 12.81082 | 2855 ft | 12 kts | 204° |
| 2026-04-18 15:37 | 47.31179 | 12.80973 | 2894 ft | 29 kts | 215° |
| 2026-04-18 15:37 | 47.31054 | 12.80799 | 2832 ft | 20 kts | 221° |
| 2026-04-18 15:37 | 47.30957 | 12.80709 | 2837 ft | 13 kts | 224° |
| 2026-04-18 15:38 | 47.30892 | 12.80678 | 2786 ft | 8 kts | 227° |
| 2026-04-18 15:38 | 47.30857 | 12.80650 | 2678 ft | 11 kts | 228° |
| 2026-04-18 15:38 | 47.30711 | 12.80643 | 2680 ft | 39 kts | 223° |
| 2026-04-18 15:38 | 47.30402 | 12.80600 | 2606 ft | 44 kts | 204° |
| 2026-04-18 15:39 | 47.30106 | 12.80577 | 2564 ft | 34 kts | 191° |
| 2026-04-18 15:39 | 47.29901 | 12.80540 | 2543 ft | 32 kts | 195° |
| 2026-04-18 15:39 | 47.29689 | 12.80357 | 2548 ft | 65 kts | 225° |
| 2026-04-18 15:39 | 47.29298 | 12.79487 | 2566 ft | 129 kts | 247° |
| 2026-04-18 15:40 | 47.29322 | 12.78198 | 2586 ft | 119 kts | 281° |
| 2026-04-18 15:40 | 47.29379 | 12.77126 | 2601 ft | 83 kts | 274° |
| 2026-04-18 15:40 | 47.29126 | 12.76669 | 2670 ft | 46 kts | 245° |
| 2026-04-18 15:40 | 47.28944 | 12.76507 | 2534 ft | 10 kts | 277° |
| 2026-04-18 15:41 | 47.28927 | 12.76458 | 2485 ft | 0 kts | 292° |